sensor_id;sensor_type;location;lat;lon;timestamp;P1;durP1;ratioP1;P2;durP2;ratioP2
17382;SDS011;8809;51.892;8.384;2023-11-19T00:00:06;1.65;;;1.55;;
17382;SDS011;8809;51.892;8.384;2023-11-19T00:02:41;1.67;;;1.58;;
17382;SDS011;8809;51.892;8.384;2023-11-19T00:05:10;1.85;;;1.67;;
17382;SDS011;8809;51.892;8.384;2023-11-19T00:07:38;1.90;;;1.80;;
17382;SDS011;8809;51.892;8.384;2023-11-19T00:10:07;3.53;;;1.70;;
17382;SDS011;8809;51.892;8.384;2023-11-19T00:12:35;1.70;;;1.60;;
17382;SDS011;8809;51.892;8.384;2023-11-19T00:15:02;1.63;;;1.38;;
17382;SDS011;8809;51.892;8.384;2023-11-19T00:17:30;1.75;;;1.65;;
17382;SDS011;8809;51.892;8.384;2023-11-19T00:19:57;2.00;;;1.80;;
17382;SDS011;8809;51.892;8.384;2023-11-19T00:22:26;3.40;;;1.77;;
17382;SDS011;8809;51.892;8.384;2023-11-19T00:24:53;2.10;;;1.90;;
17382;SDS011;8809;51.892;8.384;2023-11-19T00:27:20;4.03;;;2.05;;
17382;SDS011;8809;51.892;8.384;2023-11-19T00:29:50;2.60;;;2.40;;
17382;SDS011;8809;51.892;8.384;2023-11-19T00:32:17;2.30;;;1.75;;
17382;SDS011;8809;51.892;8.384;2023-11-19T00:34:44;4.38;;;2.17;;
17382;SDS011;8809;51.892;8.384;2023-11-19T00:37:13;2.03;;;1.90;;
17382;SDS011;8809;51.892;8.384;2023-11-19T00:39:42;2.00;;;1.70;;
17382;SDS011;8809;51.892;8.384;2023-11-19T00:42:11;2.08;;;1.95;;
17382;SDS011;8809;51.892;8.384;2023-11-19T00:44:39;2.53;;;1.70;;
17382;SDS011;8809;51.892;8.384;2023-11-19T00:47:07;2.13;;;1.92;;
17382;SDS011;8809;51.892;8.384;2023-11-19T00:49:34;2.22;;;2.00;;
17382;SDS011;8809;51.892;8.384;2023-11-19T00:52:01;1.75;;;1.65;;
17382;SDS011;8809;51.892;8.384;2023-11-19T00:54:28;2.20;;;2.00;;
17382;SDS011;8809;51.892;8.384;2023-11-19T00:56:57;3.53;;;2.08;;
17382;SDS011;8809;51.892;8.384;2023-11-19T00:59:24;1.80;;;1.70;;
17382;SDS011;8809;51.892;8.384;2023-11-19T01:01:51;2.58;;;1.70;;
17382;SDS011;8809;51.892;8.384;2023-11-19T01:04:18;2.30;;;1.73;;
17382;SDS011;8809;51.892;8.384;2023-11-19T01:06:45;2.83;;;1.70;;
17382;SDS011;8809;51.892;8.384;2023-11-19T01:09:13;2.38;;;1.67;;
17382;SDS011;8809;51.892;8.384;2023-11-19T01:11:40;1.95;;;1.85;;
17382;SDS011;8809;51.892;8.384;2023-11-19T01:14:09;3.55;;;2.00;;
17382;SDS011;8809;51.892;8.384;2023-11-19T01:16:36;2.28;;;2.08;;
17382;SDS011;8809;51.892;8.384;2023-11-19T01:19:03;2.92;;;1.90;;
17382;SDS011;8809;51.892;8.384;2023-11-19T01:21:30;2.28;;;2.00;;
17382;SDS011;8809;51.892;8.384;2023-11-19T01:23:57;3.15;;;2.40;;
17382;SDS011;8809;51.892;8.384;2023-11-19T01:26:25;2.92;;;2.45;;
17382;SDS011;8809;51.892;8.384;2023-11-19T01:28:52;3.42;;;2.63;;
17382;SDS011;8809;51.892;8.384;2023-11-19T01:31:20;2.65;;;2.10;;
17382;SDS011;8809;51.892;8.384;2023-11-19T01:33:47;2.60;;;2.20;;
17382;SDS011;8809;51.892;8.384;2023-11-19T01:36:14;2.08;;;1.88;;
17382;SDS011;8809;51.892;8.384;2023-11-19T01:38:42;4.03;;;2.30;;
17382;SDS011;8809;51.892;8.384;2023-11-19T01:41:10;3.08;;;2.08;;
17382;SDS011;8809;51.892;8.384;2023-11-19T01:43:37;2.30;;;2.10;;
17382;SDS011;8809;51.892;8.384;2023-11-19T01:46:06;3.50;;;2.83;;
17382;SDS011;8809;51.892;8.384;2023-11-19T01:48:37;2.53;;;2.10;;
17382;SDS011;8809;51.892;8.384;2023-11-19T01:51:07;2.00;;;1.80;;
17382;SDS011;8809;51.892;8.384;2023-11-19T01:53:35;2.53;;;1.90;;
17382;SDS011;8809;51.892;8.384;2023-11-19T01:56:04;5.35;;;2.10;;
17382;SDS011;8809;51.892;8.384;2023-11-19T01:58:35;2.25;;;2.03;;
17382;SDS011;8809;51.892;8.384;2023-11-19T02:01:02;2.10;;;1.80;;
17382;SDS011;8809;51.892;8.384;2023-11-19T02:03:30;2.70;;;2.33;;
17382;SDS011;8809;51.892;8.384;2023-11-19T02:05:59;2.17;;;1.95;;
17382;SDS011;8809;51.892;8.384;2023-11-19T02:08:27;3.03;;;2.63;;
17382;SDS011;8809;51.892;8.384;2023-11-19T02:10:55;2.20;;;2.00;;
17382;SDS011;8809;51.892;8.384;2023-11-19T02:13:22;2.22;;;2.03;;
17382;SDS011;8809;51.892;8.384;2023-11-19T02:15:50;2.63;;;2.42;;
17382;SDS011;8809;51.892;8.384;2023-11-19T02:18:17;2.67;;;2.47;;
17382;SDS011;8809;51.892;8.384;2023-11-19T02:20:45;3.33;;;3.03;;
17382;SDS011;8809;51.892;8.384;2023-11-19T02:23:15;2.55;;;2.35;;
17382;SDS011;8809;51.892;8.384;2023-11-19T02:25:43;3.63;;;3.08;;
17382;SDS011;8809;51.892;8.384;2023-11-19T02:28:16;3.13;;;2.67;;
17382;SDS011;8809;51.892;8.384;2023-11-19T02:30:45;4.15;;;3.45;;
17382;SDS011;8809;51.892;8.384;2023-11-19T02:33:12;3.55;;;3.25;;
17382;SDS011;8809;51.892;8.384;2023-11-19T02:35:40;4.10;;;3.70;;
17382;SDS011;8809;51.892;8.384;2023-11-19T02:38:07;4.40;;;4.00;;
17382;SDS011;8809;51.892;8.384;2023-11-19T02:40:34;4.15;;;3.72;;
17382;SDS011;8809;51.892;8.384;2023-11-19T02:43:01;4.63;;;4.22;;
17382;SDS011;8809;51.892;8.384;2023-11-19T02:45:31;4.97;;;4.43;;
17382;SDS011;8809;51.892;8.384;2023-11-19T02:47:58;6.03;;;3.85;;
17382;SDS011;8809;51.892;8.384;2023-11-19T02:50:28;4.85;;;4.10;;
17382;SDS011;8809;51.892;8.384;2023-11-19T02:52:57;5.68;;;4.80;;
17382;SDS011;8809;51.892;8.384;2023-11-19T02:55:24;5.82;;;5.18;;
17382;SDS011;8809;51.892;8.384;2023-11-19T02:57:53;7.13;;;5.78;;
17382;SDS011;8809;51.892;8.384;2023-11-19T03:00:22;8.90;;;5.85;;
17382;SDS011;8809;51.892;8.384;2023-11-19T03:02:54;6.40;;;5.72;;
17382;SDS011;8809;51.892;8.384;2023-11-19T03:05:25;7.55;;;6.43;;
17382;SDS011;8809;51.892;8.384;2023-11-19T03:07:55;9.38;;;6.72;;
17382;SDS011;8809;51.892;8.384;2023-11-19T03:10:23;7.65;;;6.70;;
17382;SDS011;8809;51.892;8.384;2023-11-19T03:12:50;8.40;;;6.80;;
17382;SDS011;8809;51.892;8.384;2023-11-19T03:15:17;11.60;;;8.18;;
17382;SDS011;8809;51.892;8.384;2023-11-19T03:17:46;8.07;;;7.15;;
17382;SDS011;8809;51.892;8.384;2023-11-19T03:20:15;10.55;;;8.50;;
17382;SDS011;8809;51.892;8.384;2023-11-19T03:22:42;12.77;;;9.70;;
17382;SDS011;8809;51.892;8.384;2023-11-19T03:25:10;13.00;;;9.63;;
17382;SDS011;8809;51.892;8.384;2023-11-19T03:27:38;14.43;;;10.30;;
17382;SDS011;8809;51.892;8.384;2023-11-19T03:30:07;11.27;;;9.07;;
17382;SDS011;8809;51.892;8.384;2023-11-19T03:32:36;10.57;;;9.30;;
17382;SDS011;8809;51.892;8.384;2023-11-19T03:35:04;14.35;;;10.70;;
17382;SDS011;8809;51.892;8.384;2023-11-19T03:37:35;11.75;;;9.20;;
17382;SDS011;8809;51.892;8.384;2023-11-19T03:40:03;10.45;;;7.78;;
17382;SDS011;8809;51.892;8.384;2023-11-19T03:42:31;12.82;;;9.30;;
17382;SDS011;8809;51.892;8.384;2023-11-19T03:44:58;11.55;;;9.43;;
17382;SDS011;8809;51.892;8.384;2023-11-19T03:47:25;9.38;;;8.18;;
17382;SDS011;8809;51.892;8.384;2023-11-19T03:49:52;10.43;;;8.73;;
17382;SDS011;8809;51.892;8.384;2023-11-19T03:52:19;8.77;;;7.43;;
17382;SDS011;8809;51.892;8.384;2023-11-19T03:54:48;10.35;;;8.50;;
17382;SDS011;8809;51.892;8.384;2023-11-19T03:57:15;8.75;;;7.07;;
17382;SDS011;8809;51.892;8.384;2023-11-19T03:59:42;9.35;;;7.68;;
17382;SDS011;8809;51.892;8.384;2023-11-19T04:02:09;10.30;;;7.50;;
17382;SDS011;8809;51.892;8.384;2023-11-19T04:04:36;11.32;;;7.70;;
17382;SDS011;8809;51.892;8.384;2023-11-19T04:07:04;12.98;;;7.35;;
17382;SDS011;8809;51.892;8.384;2023-11-19T04:09:32;7.15;;;6.45;;
17382;SDS011;8809;51.892;8.384;2023-11-19T04:12:01;13.80;;;7.07;;
17382;SDS011;8809;51.892;8.384;2023-11-19T04:14:28;10.27;;;6.43;;
17382;SDS011;8809;51.892;8.384;2023-11-19T04:16:55;16.20;;;7.00;;
17382;SDS011;8809;51.892;8.384;2023-11-19T04:19:22;13.43;;;7.07;;
17382;SDS011;8809;51.892;8.384;2023-11-19T04:21:49;13.50;;;7.60;;
17382;SDS011;8809;51.892;8.384;2023-11-19T04:24:18;12.90;;;7.07;;
17382;SDS011;8809;51.892;8.384;2023-11-19T04:26:45;12.70;;;6.85;;
17382;SDS011;8809;51.892;8.384;2023-11-19T04:29:14;14.32;;;6.05;;
17382;SDS011;8809;51.892;8.384;2023-11-19T04:31:45;11.38;;;6.05;;
17382;SDS011;8809;51.892;8.384;2023-11-19T04:34:12;10.95;;;5.22;;
17382;SDS011;8809;51.892;8.384;2023-11-19T04:36:40;12.95;;;5.85;;
17382;SDS011;8809;51.892;8.384;2023-11-19T04:39:07;11.45;;;5.47;;
17382;SDS011;8809;51.892;8.384;2023-11-19T04:41:45;9.70;;;4.85;;
17382;SDS011;8809;51.892;8.384;2023-11-19T04:44:16;13.75;;;5.00;;
17382;SDS011;8809;51.892;8.384;2023-11-19T04:46:43;12.25;;;4.75;;
17382;SDS011;8809;51.892;8.384;2023-11-19T04:49:10;10.10;;;4.80;;
17382;SDS011;8809;51.892;8.384;2023-11-19T04:51:39;9.35;;;4.50;;
17382;SDS011;8809;51.892;8.384;2023-11-19T04:54:07;13.85;;;4.28;;
17382;SDS011;8809;51.892;8.384;2023-11-19T04:56:35;11.80;;;4.32;;
17382;SDS011;8809;51.892;8.384;2023-11-19T04:59:02;10.07;;;4.43;;
17382;SDS011;8809;51.892;8.384;2023-11-19T05:01:32;15.98;;;4.88;;
17382;SDS011;8809;51.892;8.384;2023-11-19T05:03:59;11.82;;;3.97;;
17382;SDS011;8809;51.892;8.384;2023-11-19T05:06:27;14.93;;;4.30;;
17382;SDS011;8809;51.892;8.384;2023-11-19T05:08:55;11.30;;;4.22;;
17382;SDS011;8809;51.892;8.384;2023-11-19T05:11:23;15.82;;;4.25;;
17382;SDS011;8809;51.892;8.384;2023-11-19T05:13:50;11.35;;;3.92;;
17382;SDS011;8809;51.892;8.384;2023-11-19T05:16:17;17.65;;;4.25;;
17382;SDS011;8809;51.892;8.384;2023-11-19T05:18:45;12.55;;;4.18;;
17382;SDS011;8809;51.892;8.384;2023-11-19T05:21:13;10.80;;;4.45;;
17382;SDS011;8809;51.892;8.384;2023-11-19T05:23:40;14.18;;;5.00;;
17382;SDS011;8809;51.892;8.384;2023-11-19T05:26:07;12.00;;;4.15;;
17382;SDS011;8809;51.892;8.384;2023-11-19T05:28:37;11.90;;;4.15;;
17382;SDS011;8809;51.892;8.384;2023-11-19T05:31:05;16.10;;;4.35;;
17382;SDS011;8809;51.892;8.384;2023-11-19T05:33:32;12.43;;;4.40;;
17382;SDS011;8809;51.892;8.384;2023-11-19T05:36:01;12.55;;;4.57;;
17382;SDS011;8809;51.892;8.384;2023-11-19T05:38:29;9.90;;;4.15;;
17382;SDS011;8809;51.892;8.384;2023-11-19T05:40:56;14.05;;;4.47;;
17382;SDS011;8809;51.892;8.384;2023-11-19T05:43:23;16.40;;;4.65;;
17382;SDS011;8809;51.892;8.384;2023-11-19T05:45:50;10.15;;;4.72;;
17382;SDS011;8809;51.892;8.384;2023-11-19T05:48:17;18.17;;;5.53;;
17382;SDS011;8809;51.892;8.384;2023-11-19T05:50:46;15.00;;;4.43;;
17382;SDS011;8809;51.892;8.384;2023-11-19T05:53:16;12.40;;;4.95;;
17382;SDS011;8809;51.892;8.384;2023-11-19T05:55:43;10.25;;;4.07;;
17382;SDS011;8809;51.892;8.384;2023-11-19T05:58:14;11.38;;;4.43;;
17382;SDS011;8809;51.892;8.384;2023-11-19T06:00:41;12.25;;;4.90;;
17382;SDS011;8809;51.892;8.384;2023-11-19T06:03:08;20.17;;;4.63;;
17382;SDS011;8809;51.892;8.384;2023-11-19T06:05:35;14.02;;;4.60;;
17382;SDS011;8809;51.892;8.384;2023-11-19T06:08:03;15.13;;;5.40;;
17382;SDS011;8809;51.892;8.384;2023-11-19T06:10:33;15.95;;;4.90;;
17382;SDS011;8809;51.892;8.384;2023-11-19T06:13:01;15.82;;;4.45;;
17382;SDS011;8809;51.892;8.384;2023-11-19T06:15:31;16.98;;;6.03;;
17382;SDS011;8809;51.892;8.384;2023-11-19T06:17:59;24.58;;;6.18;;
17382;SDS011;8809;51.892;8.384;2023-11-19T06:20:27;21.55;;;5.50;;
17382;SDS011;8809;51.892;8.384;2023-11-19T06:22:54;12.80;;;4.80;;
17382;SDS011;8809;51.892;8.384;2023-11-19T06:25:22;18.17;;;5.57;;
17382;SDS011;8809;51.892;8.384;2023-11-19T06:27:50;24.83;;;5.25;;
17382;SDS011;8809;51.892;8.384;2023-11-19T06:30:18;18.00;;;5.00;;
17382;SDS011;8809;51.892;8.384;2023-11-19T06:32:45;21.17;;;5.20;;
17382;SDS011;8809;51.892;8.384;2023-11-19T06:35:13;18.10;;;4.88;;
17382;SDS011;8809;51.892;8.384;2023-11-19T06:37:40;17.58;;;4.80;;
17382;SDS011;8809;51.892;8.384;2023-11-19T06:40:09;19.40;;;4.90;;
17382;SDS011;8809;51.892;8.384;2023-11-19T06:42:37;19.38;;;5.40;;
17382;SDS011;8809;51.892;8.384;2023-11-19T06:45:06;20.85;;;5.05;;
17382;SDS011;8809;51.892;8.384;2023-11-19T06:47:35;26.30;;;5.20;;
17382;SDS011;8809;51.892;8.384;2023-11-19T06:50:02;22.02;;;4.70;;
17382;SDS011;8809;51.892;8.384;2023-11-19T06:52:31;20.60;;;5.40;;
17382;SDS011;8809;51.892;8.384;2023-11-19T06:54:58;23.90;;;5.25;;
17382;SDS011;8809;51.892;8.384;2023-11-19T06:57:25;24.20;;;5.60;;
17382;SDS011;8809;51.892;8.384;2023-11-19T06:59:52;23.00;;;5.20;;
17382;SDS011;8809;51.892;8.384;2023-11-19T07:02:20;23.83;;;5.45;;
17382;SDS011;8809;51.892;8.384;2023-11-19T07:04:47;18.55;;;4.45;;
17382;SDS011;8809;51.892;8.384;2023-11-19T07:07:14;20.40;;;4.82;;
17382;SDS011;8809;51.892;8.384;2023-11-19T07:09:41;20.25;;;5.30;;
17382;SDS011;8809;51.892;8.384;2023-11-19T07:12:09;20.75;;;4.65;;
17382;SDS011;8809;51.892;8.384;2023-11-19T07:14:36;18.75;;;5.10;;
17382;SDS011;8809;51.892;8.384;2023-11-19T07:17:04;21.92;;;6.03;;
17382;SDS011;8809;51.892;8.384;2023-11-19T07:19:33;16.63;;;5.10;;
17382;SDS011;8809;51.892;8.384;2023-11-19T07:22:00;22.15;;;4.45;;
17382;SDS011;8809;51.892;8.384;2023-11-19T07:24:27;23.77;;;5.97;;
17382;SDS011;8809;51.892;8.384;2023-11-19T07:26:54;17.55;;;5.20;;
17382;SDS011;8809;51.892;8.384;2023-11-19T07:29:22;23.13;;;6.15;;
17382;SDS011;8809;51.892;8.384;2023-11-19T07:31:49;22.75;;;5.90;;
17382;SDS011;8809;51.892;8.384;2023-11-19T07:34:16;24.88;;;5.95;;
17382;SDS011;8809;51.892;8.384;2023-11-19T07:36:44;20.73;;;5.30;;
17382;SDS011;8809;51.892;8.384;2023-11-19T07:39:11;23.73;;;5.47;;
17382;SDS011;8809;51.892;8.384;2023-11-19T07:41:39;24.08;;;5.55;;
17382;SDS011;8809;51.892;8.384;2023-11-19T07:44:06;17.23;;;4.80;;
17382;SDS011;8809;51.892;8.384;2023-11-19T07:46:33;22.98;;;5.32;;
17382;SDS011;8809;51.892;8.384;2023-11-19T07:49:00;23.73;;;5.90;;
17382;SDS011;8809;51.892;8.384;2023-11-19T07:51:28;27.48;;;6.35;;
17382;SDS011;8809;51.892;8.384;2023-11-19T07:53:57;20.85;;;5.43;;
17382;SDS011;8809;51.892;8.384;2023-11-19T07:56:24;19.48;;;5.22;;
17382;SDS011;8809;51.892;8.384;2023-11-19T07:58:50;22.35;;;5.78;;
17382;SDS011;8809;51.892;8.384;2023-11-19T08:01:18;22.60;;;5.80;;
17382;SDS011;8809;51.892;8.384;2023-11-19T08:03:45;23.33;;;5.43;;
17382;SDS011;8809;51.892;8.384;2023-11-19T08:06:12;18.60;;;4.40;;
17382;SDS011;8809;51.892;8.384;2023-11-19T08:08:39;22.00;;;5.13;;
17382;SDS011;8809;51.892;8.384;2023-11-19T08:11:08;22.88;;;5.65;;
17382;SDS011;8809;51.892;8.384;2023-11-19T08:13:35;24.52;;;5.07;;
17382;SDS011;8809;51.892;8.384;2023-11-19T08:16:02;24.67;;;5.85;;
17382;SDS011;8809;51.892;8.384;2023-11-19T08:18:30;23.95;;;5.57;;
17382;SDS011;8809;51.892;8.384;2023-11-19T08:20:57;22.73;;;4.88;;
17382;SDS011;8809;51.892;8.384;2023-11-19T08:23:26;23.00;;;5.43;;
17382;SDS011;8809;51.892;8.384;2023-11-19T08:25:54;23.50;;;5.53;;
17382;SDS011;8809;51.892;8.384;2023-11-19T08:28:23;24.70;;;5.68;;
17382;SDS011;8809;51.892;8.384;2023-11-19T08:30:50;20.88;;;5.22;;
17382;SDS011;8809;51.892;8.384;2023-11-19T08:33:17;19.83;;;5.35;;
17382;SDS011;8809;51.892;8.384;2023-11-19T08:35:44;29.10;;;5.45;;
17382;SDS011;8809;51.892;8.384;2023-11-19T08:38:12;29.30;;;6.10;;
17382;SDS011;8809;51.892;8.384;2023-11-19T08:40:39;20.35;;;5.45;;
17382;SDS011;8809;51.892;8.384;2023-11-19T08:43:06;24.20;;;5.90;;
17382;SDS011;8809;51.892;8.384;2023-11-19T08:45:35;27.15;;;6.40;;
17382;SDS011;8809;51.892;8.384;2023-11-19T08:48:02;22.23;;;4.95;;
17382;SDS011;8809;51.892;8.384;2023-11-19T08:50:29;26.17;;;6.05;;
17382;SDS011;8809;51.892;8.384;2023-11-19T08:52:56;30.45;;;6.03;;
17382;SDS011;8809;51.892;8.384;2023-11-19T08:55:24;22.85;;;5.25;;
17382;SDS011;8809;51.892;8.384;2023-11-19T08:57:51;19.52;;;4.95;;
17382;SDS011;8809;51.892;8.384;2023-11-19T09:00:18;24.90;;;5.38;;
17382;SDS011;8809;51.892;8.384;2023-11-19T09:02:47;22.95;;;6.03;;
17382;SDS011;8809;51.892;8.384;2023-11-19T09:05:14;20.67;;;5.90;;
17382;SDS011;8809;51.892;8.384;2023-11-19T09:07:42;20.25;;;5.22;;
17382;SDS011;8809;51.892;8.384;2023-11-19T09:10:09;17.60;;;4.85;;
17382;SDS011;8809;51.892;8.384;2023-11-19T09:12:37;24.23;;;5.65;;
17382;SDS011;8809;51.892;8.384;2023-11-19T09:15:04;21.17;;;5.85;;
17382;SDS011;8809;51.892;8.384;2023-11-19T09:17:33;26.15;;;5.45;;
17382;SDS011;8809;51.892;8.384;2023-11-19T09:20:01;23.30;;;5.55;;
17382;SDS011;8809;51.892;8.384;2023-11-19T09:22:29;25.10;;;5.40;;
17382;SDS011;8809;51.892;8.384;2023-11-19T09:24:56;19.25;;;5.70;;
17382;SDS011;8809;51.892;8.384;2023-11-19T09:27:26;23.10;;;5.35;;
17382;SDS011;8809;51.892;8.384;2023-11-19T09:29:53;23.50;;;6.22;;
17382;SDS011;8809;51.892;8.384;2023-11-19T09:32:23;27.58;;;5.45;;
17382;SDS011;8809;51.892;8.384;2023-11-19T09:34:50;24.27;;;5.18;;
17382;SDS011;8809;51.892;8.384;2023-11-19T09:37:18;26.65;;;6.25;;
17382;SDS011;8809;51.892;8.384;2023-11-19T09:39:45;16.58;;;5.07;;
17382;SDS011;8809;51.892;8.384;2023-11-19T09:42:12;24.38;;;5.88;;
17382;SDS011;8809;51.892;8.384;2023-11-19T09:44:39;21.80;;;5.03;;
17382;SDS011;8809;51.892;8.384;2023-11-19T09:47:09;17.30;;;5.05;;
17382;SDS011;8809;51.892;8.384;2023-11-19T09:49:38;23.50;;;5.90;;
17382;SDS011;8809;51.892;8.384;2023-11-19T09:52:05;16.15;;;4.82;;
17382;SDS011;8809;51.892;8.384;2023-11-19T09:54:34;18.80;;;5.32;;
17382;SDS011;8809;51.892;8.384;2023-11-19T09:57:01;27.33;;;5.63;;
17382;SDS011;8809;51.892;8.384;2023-11-19T09:59:29;31.42;;;5.55;;
17382;SDS011;8809;51.892;8.384;2023-11-19T10:01:57;20.13;;;4.90;;
17382;SDS011;8809;51.892;8.384;2023-11-19T10:04:24;25.85;;;5.38;;
17382;SDS011;8809;51.892;8.384;2023-11-19T10:06:56;25.45;;;5.55;;
17382;SDS011;8809;51.892;8.384;2023-11-19T10:09:23;36.33;;;6.22;;
17382;SDS011;8809;51.892;8.384;2023-11-19T10:11:52;21.85;;;5.38;;
17382;SDS011;8809;51.892;8.384;2023-11-19T10:14:20;21.00;;;5.72;;
17382;SDS011;8809;51.892;8.384;2023-11-19T10:16:50;22.88;;;5.28;;
17382;SDS011;8809;51.892;8.384;2023-11-19T10:19:19;26.85;;;5.20;;
17382;SDS011;8809;51.892;8.384;2023-11-19T10:21:47;22.30;;;5.43;;
17382;SDS011;8809;51.892;8.384;2023-11-19T10:24:14;20.52;;;5.25;;
17382;SDS011;8809;51.892;8.384;2023-11-19T10:26:41;26.48;;;5.50;;
17382;SDS011;8809;51.892;8.384;2023-11-19T10:29:10;22.35;;;5.43;;
17382;SDS011;8809;51.892;8.384;2023-11-19T10:31:41;30.40;;;5.80;;
17382;SDS011;8809;51.892;8.384;2023-11-19T10:34:24;28.08;;;5.28;;
17382;SDS011;8809;51.892;8.384;2023-11-19T10:36:52;28.60;;;5.60;;
17382;SDS011;8809;51.892;8.384;2023-11-19T10:39:20;19.15;;;5.07;;
17382;SDS011;8809;51.892;8.384;2023-11-19T10:41:49;24.20;;;5.35;;
17382;SDS011;8809;51.892;8.384;2023-11-19T10:47:01;21.35;;;5.50;;
17382;SDS011;8809;51.892;8.384;2023-11-19T10:49:32;31.40;;;5.63;;
17382;SDS011;8809;51.892;8.384;2023-11-19T10:52:00;22.40;;;5.65;;
17382;SDS011;8809;51.892;8.384;2023-11-19T10:54:28;31.73;;;5.43;;
17382;SDS011;8809;51.892;8.384;2023-11-19T10:56:58;18.70;;;4.72;;
17382;SDS011;8809;51.892;8.384;2023-11-19T10:59:26;17.08;;;4.05;;
17382;SDS011;8809;51.892;8.384;2023-11-19T11:01:58;21.10;;;4.75;;
17382;SDS011;8809;51.892;8.384;2023-11-19T11:04:31;22.02;;;5.22;;
17382;SDS011;8809;51.892;8.384;2023-11-19T11:07:07;20.17;;;4.97;;
17382;SDS011;8809;51.892;8.384;2023-11-19T11:09:36;17.35;;;4.68;;
17382;SDS011;8809;51.892;8.384;2023-11-19T11:12:03;24.75;;;5.32;;
17382;SDS011;8809;51.892;8.384;2023-11-19T11:14:34;20.55;;;5.38;;
17382;SDS011;8809;51.892;8.384;2023-11-19T11:17:07;24.00;;;5.68;;
17382;SDS011;8809;51.892;8.384;2023-11-19T11:19:36;23.80;;;5.68;;
17382;SDS011;8809;51.892;8.384;2023-11-19T11:22:03;26.60;;;5.53;;
17382;SDS011;8809;51.892;8.384;2023-11-19T11:27:39;24.58;;;5.05;;
17382;SDS011;8809;51.892;8.384;2023-11-19T11:30:24;22.13;;;5.22;;
17382;SDS011;8809;51.892;8.384;2023-11-19T11:33:06;31.65;;;5.60;;
17382;SDS011;8809;51.892;8.384;2023-11-19T11:35:49;22.10;;;4.72;;
17382;SDS011;8809;51.892;8.384;2023-11-19T11:38:22;23.25;;;5.63;;
17382;SDS011;8809;51.892;8.384;2023-11-19T11:43:47;28.80;;;5.45;;
17382;SDS011;8809;51.892;8.384;2023-11-19T11:49:27;26.85;;;5.10;;
17382;SDS011;8809;51.892;8.384;2023-11-19T11:52:01;23.35;;;5.32;;
17382;SDS011;8809;51.892;8.384;2023-11-19T11:54:29;24.15;;;5.30;;
17382;SDS011;8809;51.892;8.384;2023-11-19T11:57:01;26.05;;;5.60;;
17382;SDS011;8809;51.892;8.384;2023-11-19T11:59:36;25.33;;;5.72;;
17382;SDS011;8809;51.892;8.384;2023-11-19T12:02:09;19.77;;;5.03;;
17382;SDS011;8809;51.892;8.384;2023-11-19T12:04:39;19.63;;;5.32;;
17382;SDS011;8809;51.892;8.384;2023-11-19T12:07:08;20.92;;;5.28;;
17382;SDS011;8809;51.892;8.384;2023-11-19T12:09:39;22.52;;;5.43;;
17382;SDS011;8809;51.892;8.384;2023-11-19T12:12:07;22.52;;;4.97;;
17382;SDS011;8809;51.892;8.384;2023-11-19T12:15:04;24.42;;;4.80;;
17382;SDS011;8809;51.892;8.384;2023-11-19T12:20:25;18.45;;;4.53;;
17382;SDS011;8809;51.892;8.384;2023-11-19T12:22:57;23.92;;;5.20;;
17382;SDS011;8809;51.892;8.384;2023-11-19T12:25:24;22.35;;;4.97;;
17382;SDS011;8809;51.892;8.384;2023-11-19T12:27:51;19.73;;;4.35;;
17382;SDS011;8809;51.892;8.384;2023-11-19T12:30:21;19.17;;;4.88;;
17382;SDS011;8809;51.892;8.384;2023-11-19T12:32:49;22.00;;;4.35;;
17382;SDS011;8809;51.892;8.384;2023-11-19T12:35:16;23.33;;;5.20;;
17382;SDS011;8809;51.892;8.384;2023-11-19T12:37:46;20.90;;;4.93;;
17382;SDS011;8809;51.892;8.384;2023-11-19T12:40:15;25.38;;;4.72;;
17382;SDS011;8809;51.892;8.384;2023-11-19T12:42:43;15.98;;;4.22;;
17382;SDS011;8809;51.892;8.384;2023-11-19T12:45:10;23.52;;;5.70;;
17382;SDS011;8809;51.892;8.384;2023-11-19T12:47:38;24.92;;;5.40;;
17382;SDS011;8809;51.892;8.384;2023-11-19T12:50:06;24.02;;;4.95;;
17382;SDS011;8809;51.892;8.384;2023-11-19T12:52:34;25.95;;;5.55;;
17382;SDS011;8809;51.892;8.384;2023-11-19T12:55:04;19.13;;;4.47;;
17382;SDS011;8809;51.892;8.384;2023-11-19T12:57:50;17.90;;;5.00;;
17382;SDS011;8809;51.892;8.384;2023-11-19T13:00:20;16.73;;;4.32;;
17382;SDS011;8809;51.892;8.384;2023-11-19T13:02:49;21.88;;;5.65;;
17382;SDS011;8809;51.892;8.384;2023-11-19T13:05:24;22.98;;;5.10;;
17382;SDS011;8809;51.892;8.384;2023-11-19T13:07:59;19.92;;;5.03;;
17382;SDS011;8809;51.892;8.384;2023-11-19T13:10:28;21.50;;;4.82;;
17382;SDS011;8809;51.892;8.384;2023-11-19T13:12:59;20.23;;;4.78;;
17382;SDS011;8809;51.892;8.384;2023-11-19T13:15:27;17.98;;;4.60;;
17382;SDS011;8809;51.892;8.384;2023-11-19T13:17:55;20.15;;;4.68;;
17382;SDS011;8809;51.892;8.384;2023-11-19T13:20:22;18.42;;;4.53;;
17382;SDS011;8809;51.892;8.384;2023-11-19T13:22:55;16.10;;;4.18;;
17382;SDS011;8809;51.892;8.384;2023-11-19T13:25:23;19.15;;;4.65;;
17382;SDS011;8809;51.892;8.384;2023-11-19T13:27:53;13.85;;;4.05;;
17382;SDS011;8809;51.892;8.384;2023-11-19T13:30:20;17.60;;;4.20;;
17382;SDS011;8809;51.892;8.384;2023-11-19T13:32:47;14.90;;;4.55;;
17382;SDS011;8809;51.892;8.384;2023-11-19T13:35:15;16.73;;;4.72;;
17382;SDS011;8809;51.892;8.384;2023-11-19T13:37:43;19.73;;;4.63;;
17382;SDS011;8809;51.892;8.384;2023-11-19T13:40:11;18.65;;;4.50;;
17382;SDS011;8809;51.892;8.384;2023-11-19T13:42:40;18.63;;;4.32;;
17382;SDS011;8809;51.892;8.384;2023-11-19T13:45:10;21.45;;;4.70;;
17382;SDS011;8809;51.892;8.384;2023-11-19T13:47:38;22.98;;;4.60;;
17382;SDS011;8809;51.892;8.384;2023-11-19T13:50:07;18.48;;;3.85;;
17382;SDS011;8809;51.892;8.384;2023-11-19T13:52:36;22.17;;;5.35;;
17382;SDS011;8809;51.892;8.384;2023-11-19T13:55:07;16.52;;;4.45;;
17382;SDS011;8809;51.892;8.384;2023-11-19T13:57:35;17.80;;;3.95;;
17382;SDS011;8809;51.892;8.384;2023-11-19T14:00:03;17.02;;;4.80;;
17382;SDS011;8809;51.892;8.384;2023-11-19T14:02:33;20.05;;;5.05;;
17382;SDS011;8809;51.892;8.384;2023-11-19T14:05:00;21.83;;;4.32;;
17382;SDS011;8809;51.892;8.384;2023-11-19T14:07:28;21.55;;;4.45;;
17382;SDS011;8809;51.892;8.384;2023-11-19T14:09:55;20.70;;;4.72;;
17382;SDS011;8809;51.892;8.384;2023-11-19T14:12:22;17.45;;;4.35;;
17382;SDS011;8809;51.892;8.384;2023-11-19T14:14:49;20.27;;;4.72;;
17382;SDS011;8809;51.892;8.384;2023-11-19T14:17:16;19.50;;;4.38;;
17382;SDS011;8809;51.892;8.384;2023-11-19T14:19:45;16.50;;;4.05;;
17382;SDS011;8809;51.892;8.384;2023-11-19T14:22:12;28.30;;;5.93;;
17382;SDS011;8809;51.892;8.384;2023-11-19T14:24:40;29.30;;;4.82;;
17382;SDS011;8809;51.892;8.384;2023-11-19T14:27:08;37.95;;;5.15;;
17382;SDS011;8809;51.892;8.384;2023-11-19T14:29:35;22.20;;;4.28;;
17382;SDS011;8809;51.892;8.384;2023-11-19T14:32:02;23.25;;;4.60;;
17382;SDS011;8809;51.892;8.384;2023-11-19T14:34:30;18.92;;;3.90;;
17382;SDS011;8809;51.892;8.384;2023-11-19T14:36:59;22.73;;;4.45;;
17382;SDS011;8809;51.892;8.384;2023-11-19T14:39:27;19.30;;;4.90;;
17382;SDS011;8809;51.892;8.384;2023-11-19T14:41:56;48.10;;;7.68;;
17382;SDS011;8809;51.892;8.384;2023-11-19T14:44:26;80.93;;;8.75;;
17382;SDS011;8809;51.892;8.384;2023-11-19T14:46:54;58.50;;;7.40;;
17382;SDS011;8809;51.892;8.384;2023-11-19T14:49:22;23.10;;;4.55;;
17382;SDS011;8809;51.892;8.384;2023-11-19T14:51:49;19.38;;;4.57;;
17382;SDS011;8809;51.892;8.384;2023-11-19T14:54:18;43.60;;;5.22;;
17382;SDS011;8809;51.892;8.384;2023-11-19T14:56:45;29.73;;;4.63;;
17382;SDS011;8809;51.892;8.384;2023-11-19T14:59:12;36.35;;;5.88;;
17382;SDS011;8809;51.892;8.384;2023-11-19T15:01:39;14.32;;;3.80;;
17382;SDS011;8809;51.892;8.384;2023-11-19T15:04:07;20.48;;;4.07;;
17382;SDS011;8809;51.892;8.384;2023-11-19T15:06:34;19.20;;;3.90;;
17382;SDS011;8809;51.892;8.384;2023-11-19T15:09:01;18.52;;;4.10;;
17382;SDS011;8809;51.892;8.384;2023-11-19T15:11:30;20.27;;;4.10;;